Time;durP1;ratioP1;P1;durP2;ratioP2;P2;SDS_P1;SDS_P2;PMS_P1;PMS_P2;Temp;Humidity;BMP_temperature;BMP_pressure;BME280_temperature;BME280_humidity;BME280_pressure;Samples;Min_cycle;Max_cycle;Signal;HPM_P1;HPM_P2
2022/07/31 00:01:14;;;;;;;;;;;18.30;85.70;;;;;;5044546;28;19970;-60
2022/07/31 00:03:42;;;;;;;;;;;18.30;86.00;;;;;;5041513;28;19920;-60
2022/07/31 00:06:07;;;;;;;;;;;18.30;86.00;;;;;;5043583;28;19924;-60
2022/07/31 00:08:33;;;;;;;;;;;18.30;85.80;;;;;;5045036;28;20047;-60
2022/07/31 00:10:59;;;;;;;;;;;18.30;86.00;;;;;;5045730;28;20314;-59
2022/07/31 00:13:24;;;;;;;;;;;18.20;86.20;;;;;;5042860;28;19963;-61
2022/07/31 00:15:50;;;;;;;;;;;18.30;85.40;;;;;;5045606;28;22844;-60
2022/07/31 00:18:15;;;;;;;;;;;18.30;85.40;;;;;;5039742;28;19917;-61
2022/07/31 00:20:41;;;;;;;;;;;18.30;85.10;;;;;;5044462;28;20015;-60
2022/07/31 00:23:06;;;;;;;;;;;18.30;84.80;;;;;;5046727;28;19920;-62
2022/07/31 00:25:32;;;;;;;;;;;18.30;84.80;;;;;;5050415;28;20038;-61
2022/07/31 00:27:57;;;;;;;;;;;18.30;84.70;;;;;;5045517;28;20017;-62
2022/07/31 00:30:23;;;;;;;;;;;18.30;83.90;;;;;;5048599;28;19968;-61
2022/07/31 00:32:49;;;;;;;;;;;18.40;84.00;;;;;;5045030;28;20365;-61
2022/07/31 00:35:15;;;;;;;;;;;18.40;83.80;;;;;;5046769;28;20882;-62
2022/07/31 00:37:41;;;;;;;;;;;18.40;83.80;;;;;;5045788;28;19920;-60
2022/07/31 00:40:08;;;;;;;;;;;18.40;83.40;;;;;;5049396;28;19999;-61
2022/07/31 00:42:33;;;;;;;;;;;18.40;83.20;;;;;;5032785;28;19931;-61
2022/07/31 00:44:59;;;;;;;;;;;18.30;82.60;;;;;;5045316;28;19917;-60
2022/07/31 00:47:24;;;;;;;;;;;18.30;83.10;;;;;;5042857;28;19966;-62
2022/07/31 00:49:50;;;;;;;;;;;18.30;82.90;;;;;;5043491;28;20057;-60
2022/07/31 00:52:15;;;;;;;;;;;18.30;82.90;;;;;;5046570;28;20360;-60
2022/07/31 00:54:41;;;;;;;;;;;18.30;82.70;;;;;;5044748;28;19921;-61
2022/07/31 00:57:06;;;;;;;;;;;18.30;82.40;;;;;;5051838;28;19932;-61
2022/07/31 00:59:32;;;;;;;;;;;18.20;82.60;;;;;;5046832;28;20394;-62
2022/07/31 01:01:58;;;;;;;;;;;18.20;82.70;;;;;;5052181;28;19917;-61
2022/07/31 01:04:25;;;;;;;;;;;18.20;83.30;;;;;;5043027;28;19935;-61
2022/07/31 01:06:51;;;;;;;;;;;18.10;82.90;;;;;;5047552;28;19932;-60
2022/07/31 01:09:16;;;;;;;;;;;18.00;84.30;;;;;;5041520;28;20300;-60
2022/07/31 01:11:54;;;;;;;;;;;18.00;83.40;;;;;;5048589;28;19959;-61
2022/07/31 01:14:20;;;;;;;;;;;17.90;84.50;;;;;;5046744;28;19939;-60
2022/07/31 01:16:47;;;;;;;;;;;17.80;83.50;;;;;;5046276;28;19920;-60
2022/07/31 01:19:31;;;;;;;;;;;17.80;84.30;;;;;;5032276;28;19917;-60
2022/07/31 01:22:15;;;;;;;;;;;17.70;84.20;;;;;;5047017;28;19916;-60
2022/07/31 01:24:59;;;;;;;;;;;17.70;84.50;;;;;;5043671;28;20605;-60
2022/07/31 01:27:29;;;;;;;;;;;17.60;84.80;;;;;;5049533;28;19924;-60
2022/07/31 01:29:55;;;;;;;;;;;17.60;85.60;;;;;;5047371;28;19917;-60
2022/07/31 01:32:25;;;;;;;;;;;17.40;86.00;;;;;;5046115;28;20324;-60
2022/07/31 01:34:53;;;;;;;;;;;17.40;85.70;;;;;;5043774;28;19959;-60
2022/07/31 01:37:37;;;;;;;;;;;17.40;85.90;;;;;;5047068;28;19921;-60
2022/07/31 01:40:04;;;;;;;;;;;17.40;86.00;;;;;;5044589;28;20026;-60
2022/07/31 01:42:30;;;;;;;;;;;17.30;86.50;;;;;;5047163;28;19917;-59
2022/07/31 01:44:58;;;;;;;;;;;17.30;86.80;;;;;;5044241;28;19962;-61
2022/07/31 01:47:25;;;;;;;;;;;17.20;86.90;;;;;;5047695;28;19925;-61
2022/07/31 01:49:52;;;;;;;;;;;17.20;87.50;;;;;;5041975;28;19923;-60
2022/07/31 01:52:19;;;;;;;;;;;17.20;87.50;;;;;;5048333;28;19943;-60
2022/07/31 01:54:46;;;;;;;;;;;17.20;87.50;;;;;;5050827;28;19921;-60
2022/07/31 01:57:12;;;;;;;;;;;17.20;87.60;;;;;;5044762;28;19920;-62
2022/07/31 01:59:38;;;;;;;;;;;17.20;87.50;;;;;;5040843;28;19924;-60
2022/07/31 02:02:04;;;;;;;;;;;17.20;87.90;;;;;;5044635;28;19928;-60
2022/07/31 02:04:30;;;;;;;;;;;17.30;88.20;;;;;;5040227;28;20368;-61
2022/07/31 02:06:57;;;;;;;;;;;17.30;87.90;;;;;;5047713;28;19920;-61
2022/07/31 02:09:23;;;;;;;;;;;17.30;88.00;;;;;;5043414;28;19920;-61
2022/07/31 02:11:49;;;;;;;;;;;17.30;87.70;;;;;;5045688;28;19994;-59
2022/07/31 02:14:15;;;;;;;;;;;17.30;87.70;;;;;;5043868;28;20023;-61
2022/07/31 02:16:41;;;;;;;;;;;17.30;87.50;;;;;;5047509;28;20663;-60
2022/07/31 02:19:07;;;;;;;;;;;17.30;87.70;;;;;;5044205;28;19999;-60
2022/07/31 02:21:33;;;;;;;;;;;17.40;88.00;;;;;;5040929;28;19927;-61
2022/07/31 02:23:58;;;;;;;;;;;17.40;88.10;;;;;;5046880;28;20304;-61
2022/07/31 02:26:26;;;;;;;;;;;17.40;87.70;;;;;;5047104;28;19923;-60
2022/07/31 02:28:52;;;;;;;;;;;17.30;87.90;;;;;;5044742;28;19921;-60
2022/07/31 02:31:20;;;;;;;;;;;17.40;87.80;;;;;;5043717;28;19931;-60
2022/07/31 02:33:46;;;;;;;;;;;17.40;87.40;;;;;;5038765;28;19916;-60
2022/07/31 02:36:12;;;;;;;;;;;17.40;87.70;;;;;;5043295;28;20338;-60
2022/07/31 02:38:38;;;;;;;;;;;17.40;87.90;;;;;;5043784;28;19921;-60
2022/07/31 02:41:04;;;;;;;;;;;17.40;87.40;;;;;;5044145;28;23107;-60
2022/07/31 02:43:30;;;;;;;;;;;17.40;87.30;;;;;;5047694;28;19917;-60
2022/07/31 02:45:56;;;;;;;;;;;17.40;87.10;;;;;;5043057;28;19921;-61
2022/07/31 02:48:23;;;;;;;;;;;17.40;87.00;;;;;;5041651;28;19939;-60
2022/07/31 02:50:49;;;;;;;;;;;17.40;87.70;;;;;;5045694;28;19927;-60
2022/07/31 02:53:15;;;;;;;;;;;17.40;87.40;;;;;;5047701;28;19921;-59
2022/07/31 02:55:42;;;;;;;;;;;17.40;87.10;;;;;;5048763;28;20004;-60
2022/07/31 02:58:07;;;;;;;;;;;17.40;87.60;;;;;;5047534;28;19921;-60
2022/07/31 03:00:33;;;;;;;;;;;17.40;87.70;;;;;;5047697;28;19924;-60
2022/07/31 03:02:58;;;;;;;;;;;17.30;88.10;;;;;;5043364;28;19920;-61
2022/07/31 03:05:24;;;;;;;;;;;17.30;87.80;;;;;;5043022;28;19920;-60
2022/07/31 03:07:49;;;;;;;;;;;17.30;87.90;;;;;;5041643;28;19987;-60
2022/07/31 03:10:15;;;;;;;;;;;17.40;88.10;;;;;;5044073;28;20356;-61
2022/07/31 03:12:45;;;;;;;;;;;17.30;88.10;;;;;;5042910;28;19936;-60
2022/07/31 03:15:12;;;;;;;;;;;17.30;88.50;;;;;;5048906;28;20341;-61
2022/07/31 03:17:38;;;;;;;;;;;17.30;88.60;;;;;;5040861;28;20257;-61
2022/07/31 03:20:07;;;;;;;;;;;17.30;87.80;;;;;;5044302;28;19955;-61
2022/07/31 03:22:33;;;;;;;;;;;17.30;88.20;;;;;;5045704;28;19923;-61
2022/07/31 03:24:59;;;;;;;;;;;17.20;88.70;;;;;;5048070;28;20368;-61
2022/07/31 03:27:24;;;;;;;;;;;17.20;88.80;;;;;;5043515;28;20272;-59
2022/07/31 03:29:50;;;;;;;;;;;17.20;89.20;;;;;;5042248;28;19924;-61
2022/07/31 03:32:16;;;;;;;;;;;17.20;89.20;;;;;;5041397;28;20331;-60
2022/07/31 03:34:42;;;;;;;;;;;17.20;89.20;;;;;;5043370;28;19920;-61
2022/07/31 03:37:09;;;;;;;;;;;17.20;89.30;;;;;;5044611;28;21807;-61
2022/07/31 03:39:34;;;;;;;;;;;17.10;89.50;;;;;;5043235;28;19928;-60
2022/07/31 03:42:00;;;;;;;;;;;17.10;89.60;;;;;;5043564;28;19924;-61
2022/07/31 03:44:26;;;;;;;;;;;17.10;90.00;;;;;;5045368;28;19924;-61
2022/07/31 03:46:52;;;;;;;;;;;17.10;89.90;;;;;;5044461;28;20371;-61
2022/07/31 03:49:18;;;;;;;;;;;17.10;90.10;;;;;;5036495;28;19947;-61
2022/07/31 03:51:44;;;;;;;;;;;17.10;90.40;;;;;;5045696;28;19936;-60
2022/07/31 03:54:10;;;;;;;;;;;17.10;90.30;;;;;;5047151;28;19916;-60
2022/07/31 03:56:36;;;;;;;;;;;17.10;90.60;;;;;;5043948;28;20042;-59
2022/07/31 03:59:02;;;;;;;;;;;17.00;91.00;;;;;;5048077;28;19925;-61
2022/07/31 04:01:28;;;;;;;;;;;17.00;90.80;;;;;;5052099;28;19923;-60
2022/07/31 04:03:57;;;;;;;;;;;16.90;90.80;;;;;;5041576;28;19916;-59
2022/07/31 04:06:22;;;;;;;;;;;16.90;91.10;;;;;;5040361;28;20505;-61
2022/07/31 04:08:48;;;;;;;;;;;16.90;91.20;;;;;;5044597;28;19928;-60
2022/07/31 04:11:13;;;;;;;;;;;16.80;91.30;;;;;;5044968;28;20436;-59
2022/07/31 04:13:39;;;;;;;;;;;16.80;91.50;;;;;;5044272;28;19917;-60
2022/07/31 04:16:04;;;;;;;;;;;16.70;91.50;;;;;;5045202;28;19916;-60
2022/07/31 04:18:30;;;;;;;;;;;16.70;91.70;;;;;;5041621;28;19924;-60
2022/07/31 04:20:55;;;;;;;;;;;16.70;92.10;;;;;;5041510;28;19952;-60
2022/07/31 04:23:21;;;;;;;;;;;16.70;92.10;;;;;;5042275;28;19916;-61
2022/07/31 04:25:46;;;;;;;;;;;16.70;91.70;;;;;;5043599;28;19917;-60
2022/07/31 04:28:12;;;;;;;;;;;16.70;92.20;;;;;;5059648;28;19920;-60
2022/07/31 04:30:38;;;;;;;;;;;16.70;92.50;;;;;;5044500;28;20360;-60
2022/07/31 04:33:04;;;;;;;;;;;16.70;92.30;;;;;;5049490;28;20868;-60
2022/07/31 04:35:29;;;;;;;;;;;16.80;92.60;;;;;;5041745;28;19960;-59
2022/07/31 04:37:55;;;;;;;;;;;16.80;92.60;;;;;;5041285;28;19917;-60
2022/07/31 04:40:20;;;;;;;;;;;16.90;92.40;;;;;;5045836;28;19940;-59
2022/07/31 04:42:46;;;;;;;;;;;16.90;92.40;;;;;;5040658;28;20272;-60
2022/07/31 04:45:11;;;;;;;;;;;17.00;92.70;;;;;;5044980;28;19916;-59
2022/07/31 04:47:37;;;;;;;;;;;17.10;92.30;;;;;;5062396;28;19923;-61
2022/07/31 04:50:03;;;;;;;;;;;17.20;92.50;;;;;;5042110;28;20360;-60
2022/07/31 04:52:29;;;;;;;;;;;17.20;92.20;;;;;;5043425;28;19931;-60
2022/07/31 04:54:54;;;;;;;;;;;17.30;92.00;;;;;;5040957;28;19925;-61
2022/07/31 04:57:20;;;;;;;;;;;17.30;91.80;;;;;;5043784;28;19986;-61
2022/07/31 04:59:45;;;;;;;;;;;17.40;91.90;;;;;;5043645;28;19921;-61
2022/07/31 05:02:11;;;;;;;;;;;17.50;92.00;;;;;;5063060;28;19967;-60
2022/07/31 05:04:36;;;;;;;;;;;17.50;91.80;;;;;;5045534;28;19930;-61
2022/07/31 05:07:01;;;;;;;;;;;17.60;91.70;;;;;;5058321;28;20407;-60
2022/07/31 05:09:32;;;;;;;;;;;17.70;91.70;;;;;;5045177;28;19916;-61
2022/07/31 05:11:57;;;;;;;;;;;17.70;91.50;;;;;;5050276;28;19917;-60
2022/07/31 05:14:23;;;;;;;;;;;17.80;91.90;;;;;;5050725;28;20548;-59
2022/07/31 05:16:48;;;;;;;;;;;17.90;91.70;;;;;;5046207;28;19924;-61
2022/07/31 05:19:14;;;;;;;;;;;17.90;91.10;;;;;;5065326;28;19946;-60
2022/07/31 05:21:40;;;;;;;;;;;18.00;91.00;;;;;;5045770;28;19931;-60
2022/07/31 05:24:05;;;;;;;;;;;18.10;91.00;;;;;;5045288;28;19917;-61
2022/07/31 05:26:31;;;;;;;;;;;18.10;90.70;;;;;;5049449;28;19917;-61
2022/07/31 05:28:58;;;;;;;;;;;18.20;90.50;;;;;;5045553;28;19929;-60
2022/07/31 05:31:24;;;;;;;;;;;18.30;90.40;;;;;;5044126;28;19928;-60
2022/07/31 05:33:50;;;;;;;;;;;18.40;90.10;;;;;;5046972;28;19920;-60
2022/07/31 05:36:16;;;;;;;;;;;18.40;89.90;;;;;;5046612;28;19924;-61
2022/07/31 05:38:42;;;;;;;;;;;18.50;89.30;;;;;;5047687;28;19925;-60
2022/07/31 05:41:08;;;;;;;;;;;18.50;89.20;;;;;;5043562;28;19916;-60
2022/07/31 05:43:33;;;;;;;;;;;18.50;88.70;;;;;;5045294;28;20254;-60
2022/07/31 05:45:59;;;;;;;;;;;18.60;88.90;;;;;;5044070;28;19917;-60
2022/07/31 05:48:24;;;;;;;;;;;18.60;88.60;;;;;;5047080;28;20386;-60
2022/07/31 05:50:50;;;;;;;;;;;18.60;88.20;;;;;;5045529;28;19967;-61
2022/07/31 05:53:16;;;;;;;;;;;18.70;88.30;;;;;;5070864;28;19924;-60
2022/07/31 05:55:46;;;;;;;;;;;18.60;87.60;;;;;;5070369;28;20003;-60
2022/07/31 05:58:12;;;;;;;;;;;18.70;88.00;;;;;;5062044;28;19955;-60
2022/07/31 06:00:38;;;;;;;;;;;18.70;87.80;;;;;;5056208;28;20580;-60
2022/07/31 06:03:04;;;;;;;;;;;18.80;87.50;;;;;;5041120;28;19935;-61
2022/07/31 06:05:30;;;;;;;;;;;18.80;87.40;;;;;;5053045;28;19916;-59
2022/07/31 06:07:57;;;;;;;;;;;18.80;87.20;;;;;;5053824;28;19951;-60
2022/07/31 06:10:22;;;;;;;;;;;18.90;87.10;;;;;;5052164;28;20866;-61
2022/07/31 06:12:48;;;;;;;;;;;18.80;86.80;;;;;;5051918;28;20003;-61
2022/07/31 06:15:14;;;;;;;;;;;18.80;86.70;;;;;;5061275;28;19916;-60
2022/07/31 06:17:40;;;;;;;;;;;19.00;86.90;;;;;;5048832;28;19920;-60
2022/07/31 06:20:06;;;;;;;;;;;19.10;87.40;;;;;;5059911;28;19924;-60
2022/07/31 06:22:31;;;;;;;;;;;19.20;87.00;;;;;;5057885;28;20245;-60
2022/07/31 06:24:57;;;;;;;;;;;19.30;86.30;;;;;;5056564;28;19928;-62
2022/07/31 06:27:22;;;;;;;;;;;19.30;86.60;;;;;;5065624;28;19916;-60
2022/07/31 06:29:48;;;;;;;;;;;19.40;85.80;;;;;;5057934;28;20400;-60
2022/07/31 06:32:13;;;;;;;;;;;19.40;84.40;;;;;;5054184;28;19960;-60
2022/07/31 06:34:39;;;;;;;;;;;19.30;85.20;;;;;;5063244;28;19920;-60
2022/07/31 06:37:05;;;;;;;;;;;19.40;85.10;;;;;;5071583;28;20390;-60
2022/07/31 06:39:30;;;;;;;;;;;19.40;85.40;;;;;;5055137;28;20341;-60
2022/07/31 06:41:56;;;;;;;;;;;19.40;85.10;;;;;;5053042;28;19999;-60
2022/07/31 06:44:21;;;;;;;;;;;19.40;84.80;;;;;;5052254;28;19920;-61
2022/07/31 06:46:48;;;;;;;;;;;19.40;85.40;;;;;;5069322;28;19999;-60
2022/07/31 06:49:13;;;;;;;;;;;19.40;85.70;;;;;;5066382;28;19917;-60
2022/07/31 06:51:39;;;;;;;;;;;19.50;86.00;;;;;;5056617;28;19927;-61
2022/07/31 06:54:05;;;;;;;;;;;19.60;85.40;;;;;;5050887;28;19917;-60
2022/07/31 06:56:31;;;;;;;;;;;19.60;85.30;;;;;;5052769;28;19921;-60
2022/07/31 06:58:57;;;;;;;;;;;19.60;84.90;;;;;;5071387;28;19920;-59
2022/07/31 07:01:23;;;;;;;;;;;19.60;84.50;;;;;;5051653;28;19923;-61
2022/07/31 07:03:48;;;;;;;;;;;19.50;84.90;;;;;;5054451;28;19955;-60
2022/07/31 07:06:14;;;;;;;;;;;19.60;85.10;;;;;;5058412;28;19974;-60
2022/07/31 07:08:39;;;;;;;;;;;19.50;84.60;;;;;;5052436;28;20431;-60
2022/07/31 07:11:05;;;;;;;;;;;19.60;85.00;;;;;;5052869;28;19923;-60
2022/07/31 07:13:30;;;;;;;;;;;19.60;85.30;;;;;;5066531;28;20338;-60
2022/07/31 07:15:56;;;;;;;;;;;19.50;85.10;;;;;;5051845;28;19997;-61
2022/07/31 07:18:21;;;;;;;;;;;19.60;85.00;;;;;;5050935;28;20375;-60
2022/07/31 07:20:47;;;;;;;;;;;19.60;84.90;;;;;;5050890;28;19926;-60
2022/07/31 07:23:13;;;;;;;;;;;19.70;84.90;;;;;;5052393;28;19917;-60
2022/07/31 07:25:39;;;;;;;;;;;19.70;84.90;;;;;;5051930;28;19924;-60
2022/07/31 07:28:05;;;;;;;;;;;19.80;84.60;;;;;;5054876;28;19923;-60
2022/07/31 07:30:31;;;;;;;;;;;19.70;85.20;;;;;;5062861;28;19920;-60
2022/07/31 07:32:56;;;;;;;;;;;19.80;84.60;;;;;;5051253;28;20757;-60
2022/07/31 07:35:22;;;;;;;;;;;19.80;84.00;;;;;;5066009;28;19920;-61
2022/07/31 07:37:47;;;;;;;;;;;19.90;84.10;;;;;;5051970;28;19973;-61
2022/07/31 07:40:13;;;;;;;;;;;19.80;83.90;;;;;;5052239;28;19917;-61
2022/07/31 07:42:39;;;;;;;;;;;19.80;83.80;;;;;;5051885;28;19924;-61
2022/07/31 07:45:05;;;;;;;;;;;19.90;84.40;;;;;;5052276;28;19921;-60
2022/07/31 07:47:30;;;;;;;;;;;19.90;83.80;;;;;;5052929;28;19924;-61
2022/07/31 07:49:56;;;;;;;;;;;20.00;82.90;;;;;;5049433;28;20300;-60
2022/07/31 07:52:21;;;;;;;;;;;20.00;83.80;;;;;;5050220;28;19951;-60
2022/07/31 07:54:47;;;;;;;;;;;20.10;83.10;;;;;;5054796;28;19920;-61
2022/07/31 07:57:16;;;;;;;;;;;20.30;83.40;;;;;;5050786;28;20008;-60
2022/07/31 07:59:42;;;;;;;;;;;20.50;82.90;;;;;;5055540;28;19926;-61
2022/07/31 08:02:07;;;;;;;;;;;20.40;82.40;;;;;;5053773;28;19920;-61
2022/07/31 08:04:33;;;;;;;;;;;20.50;82.50;;;;;;5058743;28;20003;-61
2022/07/31 08:06:58;;;;;;;;;;;20.60;82.30;;;;;;5058509;28;19924;-61
2022/07/31 08:09:24;;;;;;;;;;;20.70;82.20;;;;;;5053784;28;19924;-60
2022/07/31 08:11:50;;;;;;;;;;;20.90;82.20;;;;;;5056777;28;20375;-61
2022/07/31 08:14:16;;;;;;;;;;;21.10;81.70;;;;;;5072537;28;19928;-61
2022/07/31 08:16:41;;;;;;;;;;;21.50;81.40;;;;;;5049859;28;20349;-61
2022/07/31 08:19:07;;;;;;;;;;;21.80;80.40;;;;;;5051746;28;20296;-60
2022/07/31 08:21:34;;;;;;;;;;;22.00;78.50;;;;;;5067105;28;19981;-61
2022/07/31 08:23:59;;;;;;;;;;;22.00;78.80;;;;;;5045690;28;19924;-60
2022/07/31 08:26:25;;;;;;;;;;;22.00;77.70;;;;;;5052859;28;19917;-60
2022/07/31 08:28:51;;;;;;;;;;;22.00;76.80;;;;;;5055138;28;19916;-62
2022/07/31 08:31:19;;;;;;;;;;;21.80;77.50;;;;;;5066405;28;20064;-61
2022/07/31 08:33:44;;;;;;;;;;;21.80;77.90;;;;;;5056327;28;19935;-61
2022/07/31 08:36:10;;;;;;;;;;;21.90;76.70;;;;;;5054943;28;19978;-60
2022/07/31 08:38:36;;;;;;;;;;;22.00;77.20;;;;;;5050882;28;19932;-60
2022/07/31 08:41:01;;;;;;;;;;;21.80;77.50;;;;;;5052743;28;20029;-61
2022/07/31 08:43:28;;;;;;;;;;;21.90;78.10;;;;;;5053116;28;19924;-60
2022/07/31 08:45:54;;;;;;;;;;;22.10;78.40;;;;;;5055499;28;19936;-62
2022/07/31 08:48:22;;;;;;;;;;;21.90;78.10;;;;;;5055717;28;19923;-61
2022/07/31 08:50:48;;;;;;;;;;;22.00;78.90;;;;;;5065170;28;19923;-60
2022/07/31 08:53:14;;;;;;;;;;;22.00;79.30;;;;;;5058341;28;19916;-60
2022/07/31 08:55:42;;;;;;;;;;;21.80;79.40;;;;;;5072211;28;19931;-60
2022/07/31 08:58:07;;;;;;;;;;;21.70;79.60;;;;;;5055321;28;19964;-61
2022/07/31 09:00:32;;;;;;;;;;;21.60;79.60;;;;;;5061610;28;20013;-60
2022/07/31 09:02:59;;;;;;;;;;;21.60;80.50;;;;;;5063115;28;20307;-60
2022/07/31 09:05:24;;;;;;;;;;;21.60;81.20;;;;;;5054578;28;20487;-62
2022/07/31 09:07:50;;;;;;;;;;;21.60;80.50;;;;;;5064307;28;20017;-60
2022/07/31 09:10:23;;;;;;;;;;;21.40;80.70;;;;;;5060249;28;19921;-61
2022/07/31 09:12:49;;;;;;;;;;;21.30;81.70;;;;;;5064988;28;19950;-60
2022/07/31 09:15:18;;;;;;;;;;;21.20;83.40;;;;;;5053413;28;20003;-61
2022/07/31 09:17:44;;;;;;;;;;;21.00;85.10;;;;;;5069877;28;19951;-61
2022/07/31 09:20:16;;;;;;;;;;;20.90;86.50;;;;;;5066698;28;19918;-60
2022/07/31 09:22:41;;;;;;;;;;;20.90;86.40;;;;;;5052991;28;19966;-60
2022/07/31 09:25:20;;;;;;;;;;;20.70;88.00;;;;;;5057748;28;19917;-60
2022/07/31 09:27:46;;;;;;;;;;;20.10;91.00;;;;;;5066247;28;19917;-61
2022/07/31 09:30:12;;;;;;;;;;;19.80;93.40;;;;;;5058867;28;20335;-62
2022/07/31 09:32:37;;;;;;;;;;;19.60;94.00;;;;;;5054282;28;19921;-63
2022/07/31 09:35:10;;;;;;;;;;;19.50;95.20;;;;;;5049776;28;20353;-61
2022/07/31 09:37:36;;;;;;;;;;;19.30;98.20;;;;;;5060059;28;20299;-62
2022/07/31 09:40:02;;;;;;;;;;;19.10;99.90;;;;;;5075472;28;19916;-61
2022/07/31 09:42:35;;;;;;;;;;;18.90;99.90;;;;;;5074772;28;19948;-62
2022/07/31 09:45:01;;;;;;;;;;;18.90;99.90;;;;;;5064184;28;19995;-62
2022/07/31 09:47:28;;;;;;;;;;;18.90;99.90;;;;;;5061139;28;20019;-62
2022/07/31 09:49:57;;;;;;;;;;;18.70;99.90;;;;;;5050695;28;20375;-61
2022/07/31 09:52:23;;;;;;;;;;;18.70;99.90;;;;;;5054128;28;19916;-61
2022/07/31 09:55:07;;;;;;;;;;;18.80;99.90;;;;;;5074363;28;19916;-60
2022/07/31 09:57:34;;;;;;;;;;;18.80;99.90;;;;;;5049266;28;20391;-61
2022/07/31 10:00:00;;;;;;;;;;;18.80;99.90;;;;;;5053115;28;21155;-60
2022/07/31 10:02:28;;;;;;;;;;;18.90;99.90;;;;;;5064546;28;19962;-60
2022/07/31 10:04:55;;;;;;;;;;;18.90;99.90;;;;;;5054143;28;19916;-62
2022/07/31 10:07:25;;;;;;;;;;;18.90;99.90;;;;;;5053458;28;20284;-62
2022/07/31 10:09:51;;;;;;;;;;;18.80;99.90;;;;;;5056216;28;19924;-60
2022/07/31 10:12:18;;;;;;;;;;;18.70;99.90;;;;;;5056165;28;19926;-61
2022/07/31 10:14:45;;;;;;;;;;;18.70;99.90;;;;;;5054411;28;19947;-61
2022/07/31 10:17:13;;;;;;;;;;;18.70;99.90;;;;;;5054433;28;20342;-61
2022/07/31 10:19:40;;;;;;;;;;;18.70;99.90;;;;;;5057236;28;19921;-60
2022/07/31 10:22:08;;;;;;;;;;;18.80;99.90;;;;;;5052073;28;19999;-60
2022/07/31 10:24:39;;;;;;;;;;;18.70;99.90;;;;;;5058430;28;19916;-60
2022/07/31 10:27:05;;;;;;;;;;;18.60;99.90;;;;;;5067781;28;19924;-61
2022/07/31 10:29:30;;;;;;;;;;;18.40;99.90;;;;;;5054234;28;19917;-61
2022/07/31 10:31:56;;;;;;;;;;;18.40;99.90;;;;;;5086355;28;19917;-61
2022/07/31 10:34:22;;;;;;;;;;;18.60;99.90;;;;;;5052433;28;19920;-62
2022/07/31 10:36:49;;;;;;;;;;;18.70;99.90;;;;;;5051307;28;19963;-62
2022/07/31 10:39:19;;;;;;;;;;;18.70;99.90;;;;;;5057624;28;20379;-60
2022/07/31 10:41:58;;;;;;;;;;;18.70;99.90;;;;;;5062562;28;19920;-59
2022/07/31 10:44:34;;;;;;;;;;;18.90;99.90;;;;;;5064964;28;20300;-61
2022/07/31 10:47:10;;;;;;;;;;;18.60;99.90;;;;;;5069996;28;19967;-61
2022/07/31 10:49:40;;;;;;;;;;;18.60;99.90;;;;;;5082387;28;19967;-60
2022/07/31 10:52:05;;;;;;;;;;;18.70;99.90;;;;;;5058212;28;19916;-61
2022/07/31 10:54:41;;;;;;;;;;;18.70;99.90;;;;;;5059322;28;19920;-59
2022/07/31 10:59:52;;;;;;;;;;;18.60;99.90;;;;;;3316182;22;20652;-61
2022/07/31 11:02:28;;;;;;;;;;;18.80;99.90;;;;;;5030823;28;20055;-61
2022/07/31 11:04:53;;;;;;;;;;;18.90;99.90;;;;;;5009177;28;20267;-61
2022/07/31 11:07:20;;;;;;;;;;;18.90;99.90;;;;;;5027618;28;19956;-61
2022/07/31 11:09:45;;;;;;;;;;;18.90;99.90;;;;;;5049267;28;19927;-61
2022/07/31 11:12:20;;;;;;;;;;;18.80;99.90;;;;;;5050504;28;20019;-61
2022/07/31 11:14:45;;;;;;;;;;;18.80;99.90;;;;;;5050174;28;19925;-60
2022/07/31 11:17:11;;;;;;;;;;;18.70;99.90;;;;;;5011961;28;20063;-60
2022/07/31 11:19:40;;;;;;;;;;;18.80;99.90;;;;;;5043837;28;19925;-61
2022/07/31 11:22:10;;;;;;;;;;;18.80;99.90;;;;;;5030904;28;20382;-60
2022/07/31 11:24:36;;;;;;;;;;;19.00;99.90;;;;;;5014924;28;19920;-61
2022/07/31 11:27:01;;;;;;;;;;;19.00;99.90;;;;;;5050572;28;19923;-59
2022/07/31 11:29:31;;;;;;;;;;;19.00;99.90;;;;;;5032293;28;19963;-60
2022/07/31 11:32:15;;;;;;;;;;;19.00;99.90;;;;;;5053042;28;19921;-61
2022/07/31 11:34:52;;;;;;;;;;;18.90;99.90;;;;;;5047707;28;19931;-59
2022/07/31 11:37:19;;;;;;;;;;;18.90;99.90;;;;;;5052155;28;19923;-60
2022/07/31 11:39:45;;;;;;;;;;;18.70;99.90;;;;;;5050613;28;19999;-60
2022/07/31 11:42:11;;;;;;;;;;;18.60;99.90;;;;;;5052600;28;19933;-60
2022/07/31 11:44:36;;;;;;;;;;;18.50;99.90;;;;;;5049694;28;20378;-60
2022/07/31 11:47:02;;;;;;;;;;;18.60;99.90;;;;;;5032979;28;19917;-60
2022/07/31 11:49:31;;;;;;;;;;;18.50;99.90;;;;;;5041102;28;19962;-61
2022/07/31 11:52:01;;;;;;;;;;;18.40;99.90;;;;;;5039212;28;19917;-60
2022/07/31 11:54:26;;;;;;;;;;;18.50;99.90;;;;;;5036052;28;19963;-61
2022/07/31 11:56:52;;;;;;;;;;;18.40;99.90;;;;;;5030276;28;19917;-62
2022/07/31 11:59:27;;;;;;;;;;;18.50;99.90;;;;;;5035387;28;19928;-62
2022/07/31 12:01:52;;;;;;;;;;;18.60;99.90;;;;;;5032568;28;19924;-62
2022/07/31 12:04:18;;;;;;;;;;;18.80;99.90;;;;;;5031130;28;20264;-62
2022/07/31 12:06:43;;;;;;;;;;;18.20;99.90;;;;;;5031464;28;19925;-62
2022/07/31 12:09:09;;;;;;;;;;;18.40;99.90;;;;;;5027347;28;19921;-64
2022/07/31 12:11:35;;;;;;;;;;;18.40;99.90;;;;;;5033746;28;20336;-63
2022/07/31 12:14:00;;;;;;;;;;;18.10;99.90;;;;;;5026273;28;19929;-63
2022/07/31 12:16:26;;;;;;;;;;;18.90;99.90;;;;;;5029778;28;19917;-63
2022/07/31 12:18:53;;;;;;;;;;;18.50;99.90;;;;;;5037642;28;19921;-63
2022/07/31 12:21:19;;;;;;;;;;;18.90;99.90;;;;;;5034108;28;20364;-64
2022/07/31 12:23:49;;;;;;;;;;;18.40;99.90;;;;;;5038504;28;19943;-62
2022/07/31 12:26:24;;;;;;;;;;;18.60;99.90;;;;;;5034050;28;20558;-63
2022/07/31 12:28:57;;;;;;;;;;;18.50;99.90;;;;;;5021538;28;19927;-61
2022/07/31 12:31:23;;;;;;;;;;;18.30;99.90;;;;;;5036635;28;19984;-63
2022/07/31 12:33:49;;;;;;;;;;;17.90;99.90;;;;;;5034540;28;20004;-61
2022/07/31 12:36:15;;;;;;;;;;;18.20;99.90;;;;;;5036678;28;20015;-62
2022/07/31 12:38:41;;;;;;;;;;;17.70;99.90;;;;;;5036218;28;19928;-61
2022/07/31 12:41:07;;;;;;;;;;;18.00;99.90;;;;;;5036397;28;20300;-61
2022/07/31 12:43:32;;;;;;;;;;;18.30;99.90;;;;;;5032453;28;19921;-63
2022/07/31 12:46:01;;;;;;;;;;;18.50;99.90;;;;;;5032681;28;19956;-62
2022/07/31 12:48:27;;;;;;;;;;;18.40;99.90;;;;;;5030746;28;19921;-60
2022/07/31 12:50:52;;;;;;;;;;;18.10;99.90;;;;;;5034281;28;19916;-61
2022/07/31 12:53:18;;;;;;;;;;;17.80;99.90;;;;;;5017824;28;20010;-63
2022/07/31 12:55:43;;;;;;;;;;;17.80;99.90;;;;;;5042506;28;19917;-63
2022/07/31 12:58:09;;;;;;;;;;;18.30;99.90;;;;;;5036953;28;19929;-63
2022/07/31 13:00:35;;;;;;;;;;;18.00;99.90;;;;;;5048058;28;19967;-61
2022/07/31 13:03:00;;;;;;;;;;;18.60;99.90;;;;;;5048449;28;20260;-62
2022/07/31 13:05:26;;;;;;;;;;;19.00;99.90;;;;;;5041906;28;20333;-60
2022/07/31 13:07:52;;;;;;;;;;;18.40;99.90;;;;;;5048357;28;19923;-64
2022/07/31 13:10:19;;;;;;;;;;;18.20;99.90;;;;;;5050390;28;20319;-62
2022/07/31 13:12:45;;;;;;;;;;;19.10;99.90;;;;;;5040421;28;19929;-61
2022/07/31 13:15:10;;;;;;;;;;;18.60;99.90;;;;;;5023385;28;19928;-63
2022/07/31 13:17:36;;;;;;;;;;;18.50;99.90;;;;;;5052667;28;20012;-63
2022/07/31 13:20:01;;;;;;;;;;;19.00;99.90;;;;;;5024208;28;20386;-64
2022/07/31 13:22:27;;;;;;;;;;;18.80;99.90;;;;;;5048660;28;19917;-62
2022/07/31 13:24:52;;;;;;;;;;;18.00;99.90;;;;;;5035043;28;20261;-63
2022/07/31 13:27:18;;;;;;;;;;;17.90;99.90;;;;;;5050635;28;20379;-61
2022/07/31 13:29:43;;;;;;;;;;;18.60;99.90;;;;;;5020483;28;20361;-61
2022/07/31 13:32:09;;;;;;;;;;;18.50;99.90;;;;;;5035756;28;20003;-61
2022/07/31 13:34:34;;;;;;;;;;;17.80;99.90;;;;;;5047386;28;19927;-62
2022/07/31 13:37:00;;;;;;;;;;;18.40;99.90;;;;;;5046824;28;19930;-62
2022/07/31 13:39:25;;;;;;;;;;;18.20;99.90;;;;;;5049255;28;20394;-62
2022/07/31 13:41:51;;;;;;;;;;;17.90;99.90;;;;;;5043075;28;20007;-62
2022/07/31 13:44:16;;;;;;;;;;;18.10;99.90;;;;;;5045412;28;19916;-60
2022/07/31 13:46:42;;;;;;;;;;;18.40;99.90;;;;;;5049809;28;20745;-62
2022/07/31 13:49:09;;;;;;;;;;;18.60;99.90;;;;;;5047595;28;20299;-62
2022/07/31 13:51:35;;;;;;;;;;;18.80;99.90;;;;;;5032611;28;19921;-63
2022/07/31 13:54:01;;;;;;;;;;;18.70;99.90;;;;;;5041635;28;19921;-61
2022/07/31 13:56:26;;;;;;;;;;;18.20;99.90;;;;;;5049863;28;19923;-62
2022/07/31 13:58:53;;;;;;;;;;;18.20;99.90;;;;;;5045122;28;19996;-62
2022/07/31 14:01:19;;;;;;;;;;;18.70;99.90;;;;;;5045595;28;19924;-63
2022/07/31 14:03:44;;;;;;;;;;;18.90;99.90;;;;;;5016952;28;19920;-62
2022/07/31 14:06:10;;;;;;;;;;;18.90;99.90;;;;;;5044651;28;19917;-63
2022/07/31 14:08:35;;;;;;;;;;;18.50;99.90;;;;;;5036015;28;19921;-62
2022/07/31 14:11:01;;;;;;;;;;;18.50;99.90;;;;;;5028978;28;19917;-61
2022/07/31 14:13:27;;;;;;;;;;;18.40;99.90;;;;;;5035712;28;20284;-62
2022/07/31 14:15:53;;;;;;;;;;;19.10;99.90;;;;;;5043965;28;19917;-64